sensor_id;sensor_type;location;lat;lon;timestamp;P1;durP1;ratioP1;P2;durP2;ratioP2
53521;SDS011;39398;48.382;9.802;2022-12-08T00:00:39;15.10;;;7.63;;
53521;SDS011;39398;48.382;9.802;2022-12-08T00:01:53;12.27;;;7.60;;
53521;SDS011;39398;48.382;9.802;2022-12-08T00:02:56;11.73;;;6.85;;
53521;SDS011;39398;48.382;9.802;2022-12-08T00:03:58;12.77;;;7.63;;
53521;SDS011;39398;48.382;9.802;2022-12-08T00:05:00;10.88;;;6.82;;
53521;SDS011;39398;48.382;9.802;2022-12-08T00:06:03;10.93;;;7.18;;
53521;SDS011;39398;48.382;9.802;2022-12-08T00:07:07;11.38;;;7.10;;
53521;SDS011;39398;48.382;9.802;2022-12-08T00:08:08;13.13;;;7.63;;
53521;SDS011;39398;48.382;9.802;2022-12-08T00:09:12;11.13;;;7.13;;
53521;SDS011;39398;48.382;9.802;2022-12-08T00:10:18;11.80;;;6.88;;
53521;SDS011;39398;48.382;9.802;2022-12-08T00:11:39;10.45;;;6.65;;
53521;SDS011;39398;48.382;9.802;2022-12-08T00:12:41;12.60;;;6.72;;
53521;SDS011;39398;48.382;9.802;2022-12-08T00:13:42;13.82;;;7.93;;
53521;SDS011;39398;48.382;9.802;2022-12-08T00:14:45;12.00;;;7.82;;
53521;SDS011;39398;48.382;9.802;2022-12-08T00:15:47;11.10;;;6.97;;
53521;SDS011;39398;48.382;9.802;2022-12-08T00:16:49;12.18;;;7.38;;
53521;SDS011;39398;48.382;9.802;2022-12-08T00:17:50;11.65;;;6.82;;
53521;SDS011;39398;48.382;9.802;2022-12-08T00:18:53;11.77;;;7.50;;
53521;SDS011;39398;48.382;9.802;2022-12-08T00:19:55;14.45;;;7.10;;
53521;SDS011;39398;48.382;9.802;2022-12-08T00:20:56;10.77;;;6.90;;
53521;SDS011;39398;48.382;9.802;2022-12-08T00:21:58;10.63;;;7.03;;
53521;SDS011;39398;48.382;9.802;2022-12-08T00:23:00;12.55;;;7.10;;
53521;SDS011;39398;48.382;9.802;2022-12-08T00:24:02;12.93;;;7.88;;
53521;SDS011;39398;48.382;9.802;2022-12-08T00:25:04;11.73;;;7.38;;
53521;SDS011;39398;48.382;9.802;2022-12-08T00:26:06;12.38;;;7.72;;
53521;SDS011;39398;48.382;9.802;2022-12-08T00:27:08;13.68;;;7.35;;
53521;SDS011;39398;48.382;9.802;2022-12-08T00:28:11;14.85;;;7.78;;
53521;SDS011;39398;48.382;9.802;2022-12-08T00:29:13;12.00;;;7.43;;
53521;SDS011;39398;48.382;9.802;2022-12-08T00:30:18;13.55;;;7.40;;
53521;SDS011;39398;48.382;9.802;2022-12-08T00:31:19;11.70;;;7.63;;
53521;SDS011;39398;48.382;9.802;2022-12-08T00:32:21;13.15;;;7.50;;
53521;SDS011;39398;48.382;9.802;2022-12-08T00:33:24;14.02;;;8.00;;
53521;SDS011;39398;48.382;9.802;2022-12-08T00:34:29;13.30;;;7.72;;
53521;SDS011;39398;48.382;9.802;2022-12-08T00:35:30;12.38;;;7.88;;
53521;SDS011;39398;48.382;9.802;2022-12-08T00:36:32;17.15;;;8.40;;
53521;SDS011;39398;48.382;9.802;2022-12-08T00:37:33;14.23;;;8.52;;
53521;SDS011;39398;48.382;9.802;2022-12-08T00:38:35;15.27;;;8.13;;
53521;SDS011;39398;48.382;9.802;2022-12-08T00:39:37;14.02;;;8.85;;
53521;SDS011;39398;48.382;9.802;2022-12-08T00:40:42;15.45;;;8.73;;
53521;SDS011;39398;48.382;9.802;2022-12-08T00:41:44;15.82;;;8.55;;
53521;SDS011;39398;48.382;9.802;2022-12-08T00:42:45;14.60;;;8.07;;
53521;SDS011;39398;48.382;9.802;2022-12-08T00:43:47;15.18;;;8.57;;
53521;SDS011;39398;48.382;9.802;2022-12-08T00:44:48;14.93;;;8.70;;
53521;SDS011;39398;48.382;9.802;2022-12-08T00:45:50;16.58;;;9.32;;
53521;SDS011;39398;48.382;9.802;2022-12-08T00:46:52;13.38;;;8.10;;
53521;SDS011;39398;48.382;9.802;2022-12-08T00:47:53;14.98;;;8.70;;
53521;SDS011;39398;48.382;9.802;2022-12-08T00:48:55;15.25;;;9.07;;
53521;SDS011;39398;48.382;9.802;2022-12-08T00:49:58;13.35;;;8.63;;
53521;SDS011;39398;48.382;9.802;2022-12-08T00:51:08;16.92;;;9.20;;
53521;SDS011;39398;48.382;9.802;2022-12-08T00:52:10;15.73;;;8.65;;
53521;SDS011;39398;48.382;9.802;2022-12-08T00:53:11;15.60;;;9.13;;
53521;SDS011;39398;48.382;9.802;2022-12-08T00:54:13;16.33;;;9.02;;
53521;SDS011;39398;48.382;9.802;2022-12-08T00:55:14;16.02;;;8.60;;
53521;SDS011;39398;48.382;9.802;2022-12-08T00:56:16;15.07;;;8.93;;
53521;SDS011;39398;48.382;9.802;2022-12-08T00:57:18;12.48;;;8.10;;
53521;SDS011;39398;48.382;9.802;2022-12-08T00:58:19;15.98;;;9.45;;
53521;SDS011;39398;48.382;9.802;2022-12-08T00:59:21;15.10;;;8.32;;
53521;SDS011;39398;48.382;9.802;2022-12-08T01:00:22;15.45;;;8.23;;
53521;SDS011;39398;48.382;9.802;2022-12-08T01:01:24;14.13;;;8.32;;
53521;SDS011;39398;48.382;9.802;2022-12-08T01:02:25;15.95;;;8.45;;
53521;SDS011;39398;48.382;9.802;2022-12-08T01:03:27;15.02;;;8.55;;
53521;SDS011;39398;48.382;9.802;2022-12-08T01:04:29;12.70;;;7.97;;
53521;SDS011;39398;48.382;9.802;2022-12-08T01:05:31;15.68;;;8.80;;
53521;SDS011;39398;48.382;9.802;2022-12-08T01:06:33;16.42;;;9.48;;
53521;SDS011;39398;48.382;9.802;2022-12-08T01:07:35;15.38;;;8.27;;
53521;SDS011;39398;48.382;9.802;2022-12-08T01:08:37;14.23;;;8.07;;
53521;SDS011;39398;48.382;9.802;2022-12-08T01:09:40;16.20;;;8.55;;
53521;SDS011;39398;48.382;9.802;2022-12-08T01:10:42;13.68;;;8.18;;
53521;SDS011;39398;48.382;9.802;2022-12-08T01:11:43;13.05;;;8.32;;
53521;SDS011;39398;48.382;9.802;2022-12-08T01:12:45;15.60;;;8.52;;
53521;SDS011;39398;48.382;9.802;2022-12-08T01:13:47;17.38;;;8.95;;
53521;SDS011;39398;48.382;9.802;2022-12-08T01:14:48;14.15;;;8.38;;
53521;SDS011;39398;48.382;9.802;2022-12-08T01:15:50;15.35;;;8.52;;
53521;SDS011;39398;48.382;9.802;2022-12-08T01:16:51;16.00;;;9.52;;
53521;SDS011;39398;48.382;9.802;2022-12-08T01:17:53;16.38;;;9.70;;
53521;SDS011;39398;48.382;9.802;2022-12-08T01:18:55;17.95;;;9.25;;
53521;SDS011;39398;48.382;9.802;2022-12-08T01:19:57;18.75;;;9.50;;
53521;SDS011;39398;48.382;9.802;2022-12-08T01:21:02;18.92;;;9.43;;
53521;SDS011;39398;48.382;9.802;2022-12-08T01:22:04;16.65;;;8.95;;
53521;SDS011;39398;48.382;9.802;2022-12-08T01:23:06;18.50;;;10.32;;
53521;SDS011;39398;48.382;9.802;2022-12-08T01:24:08;17.75;;;9.88;;
53521;SDS011;39398;48.382;9.802;2022-12-08T01:25:11;18.75;;;9.45;;
53521;SDS011;39398;48.382;9.802;2022-12-08T01:26:14;17.23;;;9.45;;
53521;SDS011;39398;48.382;9.802;2022-12-08T01:27:17;16.63;;;9.55;;
53521;SDS011;39398;48.382;9.802;2022-12-08T01:28:18;17.05;;;9.93;;
53521;SDS011;39398;48.382;9.802;2022-12-08T01:29:20;17.67;;;10.10;;
53521;SDS011;39398;48.382;9.802;2022-12-08T01:30:21;16.90;;;9.93;;
53521;SDS011;39398;48.382;9.802;2022-12-08T01:31:23;19.27;;;9.85;;
53521;SDS011;39398;48.382;9.802;2022-12-08T01:32:24;19.20;;;9.70;;
53521;SDS011;39398;48.382;9.802;2022-12-08T01:33:26;16.98;;;10.00;;
53521;SDS011;39398;48.382;9.802;2022-12-08T01:34:28;15.23;;;9.35;;
53521;SDS011;39398;48.382;9.802;2022-12-08T01:35:30;18.10;;;9.15;;
53521;SDS011;39398;48.382;9.802;2022-12-08T01:36:33;16.75;;;9.23;;
53521;SDS011;39398;48.382;9.802;2022-12-08T01:37:35;19.42;;;9.40;;
53521;SDS011;39398;48.382;9.802;2022-12-08T01:38:37;17.30;;;9.75;;
53521;SDS011;39398;48.382;9.802;2022-12-08T01:39:39;16.50;;;9.35;;
53521;SDS011;39398;48.382;9.802;2022-12-08T01:40:40;18.83;;;10.15;;
53521;SDS011;39398;48.382;9.802;2022-12-08T01:41:42;14.45;;;8.73;;
53521;SDS011;39398;48.382;9.802;2022-12-08T01:42:44;16.88;;;9.68;;
53521;SDS011;39398;48.382;9.802;2022-12-08T01:43:50;14.27;;;8.80;;
53521;SDS011;39398;48.382;9.802;2022-12-08T01:44:59;17.88;;;10.30;;
53521;SDS011;39398;48.382;9.802;2022-12-08T01:46:01;17.45;;;9.55;;
53521;SDS011;39398;48.382;9.802;2022-12-08T01:47:03;17.90;;;9.35;;
53521;SDS011;39398;48.382;9.802;2022-12-08T01:48:06;14.85;;;8.70;;
53521;SDS011;39398;48.382;9.802;2022-12-08T01:49:12;16.85;;;9.73;;
53521;SDS011;39398;48.382;9.802;2022-12-08T01:50:18;17.35;;;9.57;;
53521;SDS011;39398;48.382;9.802;2022-12-08T01:51:22;18.05;;;9.95;;
53521;SDS011;39398;48.382;9.802;2022-12-08T01:52:28;17.15;;;10.32;;
53521;SDS011;39398;48.382;9.802;2022-12-08T01:53:33;17.73;;;9.63;;
53521;SDS011;39398;48.382;9.802;2022-12-08T01:54:35;17.48;;;9.80;;
53521;SDS011;39398;48.382;9.802;2022-12-08T01:55:40;15.95;;;9.18;;
53521;SDS011;39398;48.382;9.802;2022-12-08T01:56:45;17.75;;;9.65;;
53521;SDS011;39398;48.382;9.802;2022-12-08T01:57:53;15.55;;;9.38;;
53521;SDS011;39398;48.382;9.802;2022-12-08T01:58:56;13.93;;;8.60;;
53521;SDS011;39398;48.382;9.802;2022-12-08T01:59:59;16.40;;;9.57;;
53521;SDS011;39398;48.382;9.802;2022-12-08T02:01:05;14.68;;;8.98;;
53521;SDS011;39398;48.382;9.802;2022-12-08T02:02:13;17.77;;;9.98;;
53521;SDS011;39398;48.382;9.802;2022-12-08T02:03:17;17.48;;;9.85;;
53521;SDS011;39398;48.382;9.802;2022-12-08T02:04:23;18.65;;;9.05;;
53521;SDS011;39398;48.382;9.802;2022-12-08T02:05:26;18.83;;;10.40;;
53521;SDS011;39398;48.382;9.802;2022-12-08T02:06:30;15.98;;;9.50;;
53521;SDS011;39398;48.382;9.802;2022-12-08T02:07:36;16.42;;;10.13;;
53521;SDS011;39398;48.382;9.802;2022-12-08T02:08:39;18.20;;;9.48;;
53521;SDS011;39398;48.382;9.802;2022-12-08T02:09:41;19.48;;;10.00;;
53521;SDS011;39398;48.382;9.802;2022-12-08T02:10:45;15.27;;;9.38;;
53521;SDS011;39398;48.382;9.802;2022-12-08T02:11:47;16.65;;;9.23;;
53521;SDS011;39398;48.382;9.802;2022-12-08T02:12:50;17.05;;;9.93;;
53521;SDS011;39398;48.382;9.802;2022-12-08T02:13:54;17.60;;;9.43;;
53521;SDS011;39398;48.382;9.802;2022-12-08T02:14:57;16.98;;;9.32;;
53521;SDS011;39398;48.382;9.802;2022-12-08T02:16:07;14.85;;;9.05;;
53521;SDS011;39398;48.382;9.802;2022-12-08T02:17:15;14.88;;;8.88;;
53521;SDS011;39398;48.382;9.802;2022-12-08T02:18:34;15.63;;;9.35;;
53521;SDS011;39398;48.382;9.802;2022-12-08T02:20:17;15.43;;;8.63;;
53521;SDS011;39398;48.382;9.802;2022-12-08T02:21:36;12.90;;;8.15;;
53521;SDS011;39398;48.382;9.802;2022-12-08T02:22:47;15.50;;;8.95;;
53521;SDS011;39398;48.382;9.802;2022-12-08T02:23:53;15.38;;;8.95;;
53521;SDS011;39398;48.382;9.802;2022-12-08T02:25:07;17.08;;;9.45;;
53521;SDS011;39398;48.382;9.802;2022-12-08T02:27:56;14.77;;;8.38;;
53521;SDS011;39398;48.382;9.802;2022-12-08T02:30:52;13.98;;;8.48;;
53521;SDS011;39398;48.382;9.802;2022-12-08T02:32:10;16.13;;;7.85;;
53521;SDS011;39398;48.382;9.802;2022-12-08T02:35:16;14.73;;;7.82;;
53521;SDS011;39398;48.382;9.802;2022-12-08T02:36:25;14.15;;;7.97;;
53521;SDS011;39398;48.382;9.802;2022-12-08T02:37:34;13.80;;;8.38;;
53521;SDS011;39398;48.382;9.802;2022-12-08T02:38:44;16.75;;;8.93;;
53521;SDS011;39398;48.382;9.802;2022-12-08T02:39:52;15.90;;;8.23;;
53521;SDS011;39398;48.382;9.802;2022-12-08T02:41:03;15.15;;;8.48;;
53521;SDS011;39398;48.382;9.802;2022-12-08T02:42:15;12.80;;;8.02;;
53521;SDS011;39398;48.382;9.802;2022-12-08T02:43:24;14.25;;;8.30;;
53521;SDS011;39398;48.382;9.802;2022-12-08T02:44:30;15.30;;;7.93;;
53521;SDS011;39398;48.382;9.802;2022-12-08T02:45:37;12.70;;;7.63;;
53521;SDS011;39398;48.382;9.802;2022-12-08T02:46:45;13.85;;;8.13;;
53521;SDS011;39398;48.382;9.802;2022-12-08T02:47:50;15.43;;;8.23;;
53521;SDS011;39398;48.382;9.802;2022-12-08T02:48:52;14.32;;;8.05;;
53521;SDS011;39398;48.382;9.802;2022-12-08T02:49:57;14.27;;;8.45;;
53521;SDS011;39398;48.382;9.802;2022-12-08T02:50:59;14.65;;;8.23;;
53521;SDS011;39398;48.382;9.802;2022-12-08T02:52:35;14.32;;;8.25;;
53521;SDS011;39398;48.382;9.802;2022-12-08T02:53:43;11.90;;;7.38;;
53521;SDS011;39398;48.382;9.802;2022-12-08T02:54:45;13.45;;;8.00;;
53521;SDS011;39398;48.382;9.802;2022-12-08T02:55:53;13.65;;;8.02;;
53521;SDS011;39398;48.382;9.802;2022-12-08T02:57:07;16.58;;;7.57;;
53521;SDS011;39398;48.382;9.802;2022-12-08T02:58:26;15.02;;;7.95;;
53521;SDS011;39398;48.382;9.802;2022-12-08T02:59:41;13.13;;;7.57;;
53521;SDS011;39398;48.382;9.802;2022-12-08T03:01:28;12.90;;;7.68;;
53521;SDS011;39398;48.382;9.802;2022-12-08T03:02:47;17.40;;;8.43;;
53521;SDS011;39398;48.382;9.802;2022-12-08T03:03:58;15.45;;;7.93;;
53521;SDS011;39398;48.382;9.802;2022-12-08T03:05:07;14.02;;;7.97;;
53521;SDS011;39398;48.382;9.802;2022-12-08T03:06:22;16.85;;;8.82;;
53521;SDS011;39398;48.382;9.802;2022-12-08T03:07:30;14.43;;;8.55;;
53521;SDS011;39398;48.382;9.802;2022-12-08T03:08:40;16.00;;;8.75;;
53521;SDS011;39398;48.382;9.802;2022-12-08T03:09:49;16.17;;;8.93;;
53521;SDS011;39398;48.382;9.802;2022-12-08T03:10:56;14.50;;;8.52;;
53521;SDS011;39398;48.382;9.802;2022-12-08T03:12:05;15.80;;;8.90;;
53521;SDS011;39398;48.382;9.802;2022-12-08T03:13:13;15.43;;;8.93;;
53521;SDS011;39398;48.382;9.802;2022-12-08T03:14:17;14.60;;;8.50;;
53521;SDS011;39398;48.382;9.802;2022-12-08T03:15:21;14.95;;;8.75;;
53521;SDS011;39398;48.382;9.802;2022-12-08T03:16:23;16.10;;;8.90;;
53521;SDS011;39398;48.382;9.802;2022-12-08T03:17:27;18.80;;;9.77;;
53521;SDS011;39398;48.382;9.802;2022-12-08T03:18:31;15.30;;;8.73;;
53521;SDS011;39398;48.382;9.802;2022-12-08T03:19:38;17.15;;;9.55;;
53521;SDS011;39398;48.382;9.802;2022-12-08T03:20:44;17.60;;;9.57;;
53521;SDS011;39398;48.382;9.802;2022-12-08T03:21:48;15.35;;;9.25;;
53521;SDS011;39398;48.382;9.802;2022-12-08T03:22:52;15.80;;;9.20;;
53521;SDS011;39398;48.382;9.802;2022-12-08T03:24:00;14.63;;;8.85;;
53521;SDS011;39398;48.382;9.802;2022-12-08T03:25:05;14.90;;;8.30;;
53521;SDS011;39398;48.382;9.802;2022-12-08T03:26:09;13.82;;;8.43;;
53521;SDS011;39398;48.382;9.802;2022-12-08T03:27:20;15.27;;;8.68;;
53521;SDS011;39398;48.382;9.802;2022-12-08T03:28:23;14.02;;;8.10;;
53521;SDS011;39398;48.382;9.802;2022-12-08T03:29:25;15.07;;;8.90;;
53521;SDS011;39398;48.382;9.802;2022-12-08T03:30:27;16.23;;;8.70;;
53521;SDS011;39398;48.382;9.802;2022-12-08T03:31:32;16.88;;;8.80;;
53521;SDS011;39398;48.382;9.802;2022-12-08T03:32:39;14.70;;;8.23;;
53521;SDS011;39398;48.382;9.802;2022-12-08T03:33:48;14.85;;;8.52;;
53521;SDS011;39398;48.382;9.802;2022-12-08T03:34:55;15.75;;;8.65;;
53521;SDS011;39398;48.382;9.802;2022-12-08T03:36:00;12.82;;;8.10;;
53521;SDS011;39398;48.382;9.802;2022-12-08T03:37:04;11.27;;;7.28;;
53521;SDS011;39398;48.382;9.802;2022-12-08T03:38:07;16.27;;;8.57;;
53521;SDS011;39398;48.382;9.802;2022-12-08T03:39:12;19.00;;;8.50;;
53521;SDS011;39398;48.382;9.802;2022-12-08T03:40:14;12.30;;;7.55;;
53521;SDS011;39398;48.382;9.802;2022-12-08T03:41:19;14.15;;;8.60;;
53521;SDS011;39398;48.382;9.802;2022-12-08T03:42:22;13.88;;;8.18;;
53521;SDS011;39398;48.382;9.802;2022-12-08T03:43:23;14.60;;;8.25;;
53521;SDS011;39398;48.382;9.802;2022-12-08T03:44:25;15.18;;;8.48;;
53521;SDS011;39398;48.382;9.802;2022-12-08T03:45:26;14.88;;;7.97;;
53521;SDS011;39398;48.382;9.802;2022-12-08T03:47:51;13.20;;;7.32;;
53521;SDS011;39398;48.382;9.802;2022-12-08T03:48:53;13.57;;;7.85;;
53521;SDS011;39398;48.382;9.802;2022-12-08T03:49:55;14.57;;;8.13;;
53521;SDS011;39398;48.382;9.802;2022-12-08T03:50:56;13.25;;;7.53;;
53521;SDS011;39398;48.382;9.802;2022-12-08T03:51:58;15.15;;;7.97;;
53521;SDS011;39398;48.382;9.802;2022-12-08T03:52:59;12.98;;;7.35;;
53521;SDS011;39398;48.382;9.802;2022-12-08T03:54:01;12.98;;;7.28;;
53521;SDS011;39398;48.382;9.802;2022-12-08T03:55:04;12.73;;;7.68;;
53521;SDS011;39398;48.382;9.802;2022-12-08T03:56:13;10.88;;;7.50;;
53521;SDS011;39398;48.382;9.802;2022-12-08T03:57:17;13.30;;;6.75;;
53521;SDS011;39398;48.382;9.802;2022-12-08T03:58:18;12.93;;;7.93;;
53521;SDS011;39398;48.382;9.802;2022-12-08T03:59:20;11.45;;;6.88;;
53521;SDS011;39398;48.382;9.802;2022-12-08T04:00:21;12.38;;;7.18;;
53521;SDS011;39398;48.382;9.802;2022-12-08T04:01:23;12.75;;;7.22;;
53521;SDS011;39398;48.382;9.802;2022-12-08T04:02:25;12.73;;;7.55;;
53521;SDS011;39398;48.382;9.802;2022-12-08T04:03:27;12.70;;;7.05;;
53521;SDS011;39398;48.382;9.802;2022-12-08T04:04:29;12.00;;;7.18;;
53521;SDS011;39398;48.382;9.802;2022-12-08T04:05:30;12.60;;;7.47;;
53521;SDS011;39398;48.382;9.802;2022-12-08T04:06:32;11.23;;;6.82;;
53521;SDS011;39398;48.382;9.802;2022-12-08T04:07:34;13.82;;;7.07;;
53521;SDS011;39398;48.382;9.802;2022-12-08T04:08:35;12.05;;;7.30;;
53521;SDS011;39398;48.382;9.802;2022-12-08T04:09:37;11.90;;;6.72;;
53521;SDS011;39398;48.382;9.802;2022-12-08T04:10:39;11.85;;;7.43;;
53521;SDS011;39398;48.382;9.802;2022-12-08T04:11:41;11.82;;;7.20;;
53521;SDS011;39398;48.382;9.802;2022-12-08T04:12:43;10.90;;;7.05;;
53521;SDS011;39398;48.382;9.802;2022-12-08T04:13:44;12.77;;;7.38;;
53521;SDS011;39398;48.382;9.802;2022-12-08T04:14:46;13.25;;;7.80;;
53521;SDS011;39398;48.382;9.802;2022-12-08T04:15:48;13.05;;;7.47;;
53521;SDS011;39398;48.382;9.802;2022-12-08T04:16:50;12.48;;;7.43;;
53521;SDS011;39398;48.382;9.802;2022-12-08T04:17:54;12.93;;;7.65;;
53521;SDS011;39398;48.382;9.802;2022-12-08T04:18:56;13.52;;;7.85;;
53521;SDS011;39398;48.382;9.802;2022-12-08T04:19:57;14.18;;;7.70;;
53521;SDS011;39398;48.382;9.802;2022-12-08T04:20:59;12.50;;;7.13;;
53521;SDS011;39398;48.382;9.802;2022-12-08T04:22:01;10.95;;;7.18;;
53521;SDS011;39398;48.382;9.802;2022-12-08T04:23:02;13.27;;;7.68;;
53521;SDS011;39398;48.382;9.802;2022-12-08T04:24:04;13.98;;;7.75;;
53521;SDS011;39398;48.382;9.802;2022-12-08T04:25:07;13.63;;;6.95;;
53521;SDS011;39398;48.382;9.802;2022-12-08T04:26:10;12.55;;;7.15;;
53521;SDS011;39398;48.382;9.802;2022-12-08T04:27:11;11.70;;;7.05;;
53521;SDS011;39398;48.382;9.802;2022-12-08T04:28:13;13.40;;;7.45;;
53521;SDS011;39398;48.382;9.802;2022-12-08T04:29:14;12.20;;;7.35;;
53521;SDS011;39398;48.382;9.802;2022-12-08T04:30:16;14.32;;;7.05;;
53521;SDS011;39398;48.382;9.802;2022-12-08T04:31:18;10.57;;;6.28;;
53521;SDS011;39398;48.382;9.802;2022-12-08T04:32:19;10.07;;;6.35;;
53521;SDS011;39398;48.382;9.802;2022-12-08T04:33:21;11.65;;;6.40;;
53521;SDS011;39398;48.382;9.802;2022-12-08T04:34:23;8.80;;;5.95;;
53521;SDS011;39398;48.382;9.802;2022-12-08T04:35:24;11.10;;;6.32;;
53521;SDS011;39398;48.382;9.802;2022-12-08T04:36:26;11.80;;;6.78;;
53521;SDS011;39398;48.382;9.802;2022-12-08T04:37:27;10.38;;;6.43;;
53521;SDS011;39398;48.382;9.802;2022-12-08T04:38:29;11.77;;;6.60;;
53521;SDS011;39398;48.382;9.802;2022-12-08T04:39:30;11.13;;;6.82;;
53521;SDS011;39398;48.382;9.802;2022-12-08T04:40:32;11.98;;;7.18;;
53521;SDS011;39398;48.382;9.802;2022-12-08T04:41:35;14.93;;;7.50;;
53521;SDS011;39398;48.382;9.802;2022-12-08T04:42:36;16.33;;;8.63;;
53521;SDS011;39398;48.382;9.802;2022-12-08T04:43:38;17.60;;;8.50;;
53521;SDS011;39398;48.382;9.802;2022-12-08T04:44:40;20.23;;;8.55;;
53521;SDS011;39398;48.382;9.802;2022-12-08T04:45:41;17.08;;;8.88;;
53521;SDS011;39398;48.382;9.802;2022-12-08T04:46:43;19.40;;;8.65;;
53521;SDS011;39398;48.382;9.802;2022-12-08T04:47:44;18.85;;;8.40;;
53521;SDS011;39398;48.382;9.802;2022-12-08T04:48:46;19.25;;;8.98;;
53521;SDS011;39398;48.382;9.802;2022-12-08T04:49:48;18.70;;;9.15;;
53521;SDS011;39398;48.382;9.802;2022-12-08T04:50:49;21.40;;;9.85;;
53521;SDS011;39398;48.382;9.802;2022-12-08T04:51:51;18.30;;;9.00;;
53521;SDS011;39398;48.382;9.802;2022-12-08T04:52:52;22.05;;;9.90;;
53521;SDS011;39398;48.382;9.802;2022-12-08T04:53:54;16.88;;;9.13;;
53521;SDS011;39398;48.382;9.802;2022-12-08T04:54:58;17.85;;;8.70;;
53521;SDS011;39398;48.382;9.802;2022-12-08T04:56:00;17.25;;;8.10;;
53521;SDS011;39398;48.382;9.802;2022-12-08T04:57:03;13.35;;;7.25;;
53521;SDS011;39398;48.382;9.802;2022-12-08T04:58:04;13.73;;;7.72;;
53521;SDS011;39398;48.382;9.802;2022-12-08T04:59:06;11.73;;;6.60;;
53521;SDS011;39398;48.382;9.802;2022-12-08T05:00:08;11.60;;;6.43;;
53521;SDS011;39398;48.382;9.802;2022-12-08T05:01:11;10.20;;;5.97;;
53521;SDS011;39398;48.382;9.802;2022-12-08T05:02:13;15.13;;;6.10;;
53521;SDS011;39398;48.382;9.802;2022-12-08T05:03:15;10.57;;;5.95;;
53521;SDS011;39398;48.382;9.802;2022-12-08T05:04:17;9.45;;;5.57;;
53521;SDS011;39398;48.382;9.802;2022-12-08T05:05:18;9.23;;;5.93;;
53521;SDS011;39398;48.382;9.802;2022-12-08T05:06:20;9.77;;;6.00;;
53521;SDS011;39398;48.382;9.802;2022-12-08T05:07:21;9.93;;;5.22;;
53521;SDS011;39398;48.382;9.802;2022-12-08T05:08:23;8.43;;;5.53;;
53521;SDS011;39398;48.382;9.802;2022-12-08T05:09:24;10.38;;;5.88;;
53521;SDS011;39398;48.382;9.802;2022-12-08T05:10:26;9.38;;;5.13;;
53521;SDS011;39398;48.382;9.802;2022-12-08T05:11:28;9.82;;;5.40;;
53521;SDS011;39398;48.382;9.802;2022-12-08T05:12:30;7.80;;;5.40;;
53521;SDS011;39398;48.382;9.802;2022-12-08T05:13:32;11.48;;;5.55;;
53521;SDS011;39398;48.382;9.802;2022-12-08T05:14:34;10.88;;;6.20;;
53521;SDS011;39398;48.382;9.802;2022-12-08T05:15:35;9.95;;;5.88;;
53521;SDS011;39398;48.382;9.802;2022-12-08T05:16:37;10.65;;;6.20;;
53521;SDS011;39398;48.382;9.802;2022-12-08T05:17:38;10.05;;;5.90;;
53521;SDS011;39398;48.382;9.802;2022-12-08T05:18:40;10.75;;;5.85;;
53521;SDS011;39398;48.382;9.802;2022-12-08T05:19:43;9.73;;;5.97;;
53521;SDS011;39398;48.382;9.802;2022-12-08T05:20:44;8.90;;;5.80;;
53521;SDS011;39398;48.382;9.802;2022-12-08T05:21:46;10.48;;;5.97;;
53521;SDS011;39398;48.382;9.802;2022-12-08T05:22:48;11.45;;;6.15;;
53521;SDS011;39398;48.382;9.802;2022-12-08T05:24:01;11.10;;;5.80;;
53521;SDS011;39398;48.382;9.802;2022-12-08T05:25:03;11.23;;;5.47;;
53521;SDS011;39398;48.382;9.802;2022-12-08T05:26:05;8.85;;;5.50;;
53521;SDS011;39398;48.382;9.802;2022-12-08T05:27:07;9.25;;;5.50;;
53521;SDS011;39398;48.382;9.802;2022-12-08T05:28:11;8.57;;;5.45;;
53521;SDS011;39398;48.382;9.802;2022-12-08T05:29:32;8.35;;;5.30;;
53521;SDS011;39398;48.382;9.802;2022-12-08T05:30:34;8.40;;;4.65;;
53521;SDS011;39398;48.382;9.802;2022-12-08T05:31:35;8.60;;;4.95;;
53521;SDS011;39398;48.382;9.802;2022-12-08T05:32:37;8.80;;;4.90;;
53521;SDS011;39398;48.382;9.802;2022-12-08T05:33:38;8.27;;;5.45;;
53521;SDS011;39398;48.382;9.802;2022-12-08T05:34:40;9.50;;;5.25;;
53521;SDS011;39398;48.382;9.802;2022-12-08T05:35:42;9.30;;;5.50;;
53521;SDS011;39398;48.382;9.802;2022-12-08T05:36:44;6.70;;;4.20;;
53521;SDS011;39398;48.382;9.802;2022-12-08T05:37:45;9.50;;;4.88;;
53521;SDS011;39398;48.382;9.802;2022-12-08T05:38:47;8.88;;;4.47;;
53521;SDS011;39398;48.382;9.802;2022-12-08T05:39:48;10.00;;;4.57;;
53521;SDS011;39398;48.382;9.802;2022-12-08T05:40:50;7.40;;;4.93;;
53521;SDS011;39398;48.382;9.802;2022-12-08T05:41:52;8.18;;;5.15;;
53521;SDS011;39398;48.382;9.802;2022-12-08T05:42:53;8.50;;;5.50;;
53521;SDS011;39398;48.382;9.802;2022-12-08T05:43:56;8.85;;;5.07;;
53521;SDS011;39398;48.382;9.802;2022-12-08T05:44:58;8.65;;;5.25;;
53521;SDS011;39398;48.382;9.802;2022-12-08T05:45:59;8.52;;;5.18;;
53521;SDS011;39398;48.382;9.802;2022-12-08T05:47:01;6.13;;;4.15;;
53521;SDS011;39398;48.382;9.802;2022-12-08T05:48:03;8.98;;;4.93;;
53521;SDS011;39398;48.382;9.802;2022-12-08T05:49:05;8.35;;;5.22;;
53521;SDS011;39398;48.382;9.802;2022-12-08T05:50:06;7.78;;;4.93;;
53521;SDS011;39398;48.382;9.802;2022-12-08T05:51:12;7.05;;;4.45;;
53521;SDS011;39398;48.382;9.802;2022-12-08T05:52:17;8.70;;;4.78;;
53521;SDS011;39398;48.382;9.802;2022-12-08T05:53:19;7.72;;;4.82;;
53521;SDS011;39398;48.382;9.802;2022-12-08T05:54:20;5.88;;;4.22;;
53521;SDS011;39398;48.382;9.802;2022-12-08T05:55:22;8.10;;;4.55;;
53521;SDS011;39398;48.382;9.802;2022-12-08T05:56:24;7.20;;;4.50;;
53521;SDS011;39398;48.382;9.802;2022-12-08T05:57:25;8.13;;;4.82;;
53521;SDS011;39398;48.382;9.802;2022-12-08T05:58:27;8.10;;;4.65;;
53521;SDS011;39398;48.382;9.802;2022-12-08T05:59:29;7.53;;;4.88;;
53521;SDS011;39398;48.382;9.802;2022-12-08T06:00:31;8.90;;;5.32;;
53521;SDS011;39398;48.382;9.802;2022-12-08T06:01:33;6.78;;;4.43;;
53521;SDS011;39398;48.382;9.802;2022-12-08T06:02:35;8.52;;;4.85;;
53521;SDS011;39398;48.382;9.802;2022-12-08T06:03:37;5.85;;;4.25;;
53521;SDS011;39398;48.382;9.802;2022-12-08T06:04:38;8.07;;;4.28;;
53521;SDS011;39398;48.382;9.802;2022-12-08T06:05:40;8.02;;;5.10;;
53521;SDS011;39398;48.382;9.802;2022-12-08T06:06:43;7.15;;;4.50;;
53521;SDS011;39398;48.382;9.802;2022-12-08T06:07:44;8.10;;;4.50;;
53521;SDS011;39398;48.382;9.802;2022-12-08T06:08:46;7.47;;;4.43;;
53521;SDS011;39398;48.382;9.802;2022-12-08T06:09:47;8.18;;;4.28;;
53521;SDS011;39398;48.382;9.802;2022-12-08T06:10:50;11.10;;;5.80;;
53521;SDS011;39398;48.382;9.802;2022-12-08T06:11:53;9.95;;;5.43;;
53521;SDS011;39398;48.382;9.802;2022-12-08T06:12:55;11.63;;;5.85;;
53521;SDS011;39398;48.382;9.802;2022-12-08T06:13:57;11.13;;;5.75;;
53521;SDS011;39398;48.382;9.802;2022-12-08T06:15:02;10.30;;;5.63;;
53521;SDS011;39398;48.382;9.802;2022-12-08T06:16:05;10.15;;;5.70;;
53521;SDS011;39398;48.382;9.802;2022-12-08T06:17:08;7.43;;;5.10;;
53521;SDS011;39398;48.382;9.802;2022-12-08T06:18:11;10.02;;;5.53;;
53521;SDS011;39398;48.382;9.802;2022-12-08T06:19:14;7.65;;;4.95;;
53521;SDS011;39398;48.382;9.802;2022-12-08T06:20:15;8.88;;;4.88;;
53521;SDS011;39398;48.382;9.802;2022-12-08T06:21:17;9.45;;;4.95;;
53521;SDS011;39398;48.382;9.802;2022-12-08T06:22:19;9.02;;;5.32;;
53521;SDS011;39398;48.382;9.802;2022-12-08T06:23:21;9.05;;;5.47;;
53521;SDS011;39398;48.382;9.802;2022-12-08T06:24:23;8.65;;;5.30;;
53521;SDS011;39398;48.382;9.802;2022-12-08T06:25:24;8.55;;;5.07;;
53521;SDS011;39398;48.382;9.802;2022-12-08T06:26:26;8.68;;;5.28;;